sensor_id;sensor_type;location;lat;lon;timestamp;temperature;humidity
32296;DHT22;18781;51.550;5.418;2023-05-10T00:01:54;17.10;75.50
32296;DHT22;18781;51.550;5.418;2023-05-10T00:04:19;17.10;75.60
32296;DHT22;18781;51.550;5.418;2023-05-10T00:06:46;17.00;75.60
32296;DHT22;18781;51.550;5.418;2023-05-10T00:09:11;17.00;75.60
32296;DHT22;18781;51.550;5.418;2023-05-10T00:11:36;17.00;75.50
32296;DHT22;18781;51.550;5.418;2023-05-10T00:14:02;17.00;75.50
32296;DHT22;18781;51.550;5.418;2023-05-10T00:16:28;17.00;75.50
32296;DHT22;18781;51.550;5.418;2023-05-10T00:18:53;17.00;75.60
32296;DHT22;18781;51.550;5.418;2023-05-10T00:21:19;17.00;75.60
32296;DHT22;18781;51.550;5.418;2023-05-10T00:23:44;17.00;75.60
32296;DHT22;18781;51.550;5.418;2023-05-10T00:26:10;17.00;75.60
32296;DHT22;18781;51.550;5.418;2023-05-10T00:28:36;17.00;75.60
32296;DHT22;18781;51.550;5.418;2023-05-10T00:31:01;17.00;75.60
32296;DHT22;18781;51.550;5.418;2023-05-10T00:33:27;17.00;76.00
32296;DHT22;18781;51.550;5.418;2023-05-10T00:35:53;17.00;75.40
32296;DHT22;18781;51.550;5.418;2023-05-10T00:38:18;16.90;75.30
32296;DHT22;18781;51.550;5.418;2023-05-10T00:40:44;16.90;75.30
32296;DHT22;18781;51.550;5.418;2023-05-10T00:43:09;16.90;75.30
32296;DHT22;18781;51.550;5.418;2023-05-10T00:45:35;16.90;75.20
32296;DHT22;18781;51.550;5.418;2023-05-10T00:48:02;16.90;75.20
32296;DHT22;18781;51.550;5.418;2023-05-10T00:50:29;16.90;75.20
32296;DHT22;18781;51.550;5.418;2023-05-10T00:52:56;16.80;75.20
32296;DHT22;18781;51.550;5.418;2023-05-10T00:55:23;16.80;75.20
32296;DHT22;18781;51.550;5.418;2023-05-10T00:57:48;16.80;75.40
32296;DHT22;18781;51.550;5.418;2023-05-10T01:00:14;16.80;75.40
32296;DHT22;18781;51.550;5.418;2023-05-10T01:02:44;16.80;75.40
32296;DHT22;18781;51.550;5.418;2023-05-10T01:05:10;16.80;75.40
32296;DHT22;18781;51.550;5.418;2023-05-10T01:07:36;16.80;75.40
32296;DHT22;18781;51.550;5.418;2023-05-10T01:10:02;16.80;75.50
32296;DHT22;18781;51.550;5.418;2023-05-10T01:12:27;16.80;75.50
32296;DHT22;18781;51.550;5.418;2023-05-10T01:14:54;16.80;75.50
32296;DHT22;18781;51.550;5.418;2023-05-10T01:17:21;16.70;75.50
32296;DHT22;18781;51.550;5.418;2023-05-10T01:19:47;16.80;75.60
32296;DHT22;18781;51.550;5.418;2023-05-10T01:22:18;16.70;75.60
32296;DHT22;18781;51.550;5.418;2023-05-10T01:30:29;16.70;75.90
32296;DHT22;18781;51.550;5.418;2023-05-10T01:33:19;16.70;75.90
32296;DHT22;18781;51.550;5.418;2023-05-10T01:41:19;16.70;76.20
32296;DHT22;18781;51.550;5.418;2023-05-10T01:43:57;16.70;76.40
32296;DHT22;18781;51.550;5.418;2023-05-10T01:46:37;16.70;76.50
32296;DHT22;18781;51.550;5.418;2023-05-10T01:49:11;16.70;76.50
32296;DHT22;18781;51.550;5.418;2023-05-10T01:51:44;16.70;76.50
32296;DHT22;18781;51.550;5.418;2023-05-10T01:54:12;16.70;76.40
32296;DHT22;18781;51.550;5.418;2023-05-10T01:56:39;16.70;76.40
32296;DHT22;18781;51.550;5.418;2023-05-10T01:59:11;16.70;76.40
32296;DHT22;18781;51.550;5.418;2023-05-10T02:01:38;16.70;76.60
32296;DHT22;18781;51.550;5.418;2023-05-10T02:04:06;16.70;76.50
32296;DHT22;18781;51.550;5.418;2023-05-10T02:06:33;16.70;76.80
32296;DHT22;18781;51.550;5.418;2023-05-10T02:09:01;16.60;76.70
32296;DHT22;18781;51.550;5.418;2023-05-10T02:11:28;16.70;76.70
32296;DHT22;18781;51.550;5.418;2023-05-10T02:13:55;16.70;76.70
32296;DHT22;18781;51.550;5.418;2023-05-10T02:16:24;16.70;76.70
32296;DHT22;18781;51.550;5.418;2023-05-10T02:18:52;16.70;76.80
32296;DHT22;18781;51.550;5.418;2023-05-10T02:21:19;16.70;76.70
32296;DHT22;18781;51.550;5.418;2023-05-10T02:23:46;16.70;76.80
32296;DHT22;18781;51.550;5.418;2023-05-10T02:26:14;16.70;76.70
32296;DHT22;18781;51.550;5.418;2023-05-10T02:28:40;16.70;76.70
32296;DHT22;18781;51.550;5.418;2023-05-10T02:31:07;16.70;76.70
32296;DHT22;18781;51.550;5.418;2023-05-10T02:33:38;16.70;76.70
32296;DHT22;18781;51.550;5.418;2023-05-10T02:36:04;16.70;76.80
32296;DHT22;18781;51.550;5.418;2023-05-10T02:38:32;16.70;76.70
32296;DHT22;18781;51.550;5.418;2023-05-10T02:40:59;16.70;76.80
32296;DHT22;18781;51.550;5.418;2023-05-10T02:43:25;16.70;76.80
32296;DHT22;18781;51.550;5.418;2023-05-10T02:45:51;16.70;76.80
32296;DHT22;18781;51.550;5.418;2023-05-10T02:48:17;16.70;76.80
32296;DHT22;18781;51.550;5.418;2023-05-10T02:50:44;16.70;76.80
32296;DHT22;18781;51.550;5.418;2023-05-10T02:53:15;16.70;76.60
32296;DHT22;18781;51.550;5.418;2023-05-10T02:55:43;16.70;76.70
32296;DHT22;18781;51.550;5.418;2023-05-10T02:58:10;16.70;76.70
32296;DHT22;18781;51.550;5.418;2023-05-10T03:00:36;16.70;76.70
32296;DHT22;18781;51.550;5.418;2023-05-10T03:03:02;16.70;76.70
32296;DHT22;18781;51.550;5.418;2023-05-10T03:05:27;16.70;76.70
32296;DHT22;18781;51.550;5.418;2023-05-10T03:07:53;16.70;76.60
32296;DHT22;18781;51.550;5.418;2023-05-10T03:10:24;16.70;76.70
32296;DHT22;18781;51.550;5.418;2023-05-10T03:13:13;16.70;76.80
32296;DHT22;18781;51.550;5.418;2023-05-10T03:18:37;16.70;77.10
32296;DHT22;18781;51.550;5.418;2023-05-10T03:21:08;16.70;76.90
32296;DHT22;18781;51.550;5.418;2023-05-10T03:23:43;16.70;76.80
32296;DHT22;18781;51.550;5.418;2023-05-10T03:26:08;16.70;77.00
32296;DHT22;18781;51.550;5.418;2023-05-10T03:28:35;16.70;76.90
32296;DHT22;18781;51.550;5.418;2023-05-10T03:31:02;16.70;77.00
32296;DHT22;18781;51.550;5.418;2023-05-10T03:33:29;16.70;77.00
32296;DHT22;18781;51.550;5.418;2023-05-10T03:35:55;16.70;77.10
32296;DHT22;18781;51.550;5.418;2023-05-10T03:38:20;16.70;77.10
32296;DHT22;18781;51.550;5.418;2023-05-10T03:40:46;16.70;77.00
32296;DHT22;18781;51.550;5.418;2023-05-10T03:43:11;16.70;77.00
32296;DHT22;18781;51.550;5.418;2023-05-10T03:45:37;16.70;77.10
32296;DHT22;18781;51.550;5.418;2023-05-10T03:48:03;16.70;77.10
32296;DHT22;18781;51.550;5.418;2023-05-10T03:50:28;16.70;77.10
32296;DHT22;18781;51.550;5.418;2023-05-10T03:52:57;16.70;77.20
32296;DHT22;18781;51.550;5.418;2023-05-10T03:55:23;16.70;77.30
32296;DHT22;18781;51.550;5.418;2023-05-10T03:57:49;16.60;77.20
32296;DHT22;18781;51.550;5.418;2023-05-10T04:00:19;16.70;77.20
32296;DHT22;18781;51.550;5.418;2023-05-10T04:02:44;16.70;77.30
32296;DHT22;18781;51.550;5.418;2023-05-10T04:05:10;16.70;77.30
32296;DHT22;18781;51.550;5.418;2023-05-10T04:07:36;16.60;77.20
32296;DHT22;18781;51.550;5.418;2023-05-10T04:10:01;16.70;77.30
32296;DHT22;18781;51.550;5.418;2023-05-10T04:12:27;16.60;77.20
32296;DHT22;18781;51.550;5.418;2023-05-10T04:14:52;16.70;77.20
32296;DHT22;18781;51.550;5.418;2023-05-10T04:17:18;16.70;77.20
32296;DHT22;18781;51.550;5.418;2023-05-10T04:19:43;16.60;77.20
32296;DHT22;18781;51.550;5.418;2023-05-10T04:22:09;16.60;77.10
32296;DHT22;18781;51.550;5.418;2023-05-10T04:24:34;16.60;77.20
32296;DHT22;18781;51.550;5.418;2023-05-10T04:27:00;16.60;77.10
32296;DHT22;18781;51.550;5.418;2023-05-10T04:29:25;16.70;77.00
32296;DHT22;18781;51.550;5.418;2023-05-10T04:31:52;16.60;76.90
32296;DHT22;18781;51.550;5.418;2023-05-10T04:34:17;16.60;76.80
32296;DHT22;18781;51.550;5.418;2023-05-10T04:36:43;16.60;76.80
32296;DHT22;18781;51.550;5.418;2023-05-10T04:39:08;16.60;76.80
32296;DHT22;18781;51.550;5.418;2023-05-10T04:41:35;16.60;76.60
32296;DHT22;18781;51.550;5.418;2023-05-10T04:44:00;16.50;76.50
32296;DHT22;18781;51.550;5.418;2023-05-10T04:46:26;16.50;76.50
32296;DHT22;18781;51.550;5.418;2023-05-10T04:48:51;16.50;76.30
32296;DHT22;18781;51.550;5.418;2023-05-10T04:51:17;16.50;76.30
32296;DHT22;18781;51.550;5.418;2023-05-10T04:53:42;16.50;76.30
32296;DHT22;18781;51.550;5.418;2023-05-10T04:56:08;16.40;76.20
32296;DHT22;18781;51.550;5.418;2023-05-10T04:58:33;16.40;76.20
32296;DHT22;18781;51.550;5.418;2023-05-10T05:01:06;16.40;76.20
32296;DHT22;18781;51.550;5.418;2023-05-10T05:03:33;16.40;76.30
32296;DHT22;18781;51.550;5.418;2023-05-10T05:05:58;16.30;76.30
32296;DHT22;18781;51.550;5.418;2023-05-10T05:08:24;16.30;76.30
32296;DHT22;18781;51.550;5.418;2023-05-10T05:10:50;16.30;76.20
32296;DHT22;18781;51.550;5.418;2023-05-10T05:13:15;16.30;76.30
32296;DHT22;18781;51.550;5.418;2023-05-10T05:15:41;16.30;76.20
32296;DHT22;18781;51.550;5.418;2023-05-10T05:18:06;16.30;76.20
32296;DHT22;18781;51.550;5.418;2023-05-10T05:20:33;16.30;76.20
32296;DHT22;18781;51.550;5.418;2023-05-10T05:22:59;16.30;76.30
32296;DHT22;18781;51.550;5.418;2023-05-10T05:25:24;16.30;76.30
32296;DHT22;18781;51.550;5.418;2023-05-10T05:27:50;16.30;76.30
32296;DHT22;18781;51.550;5.418;2023-05-10T05:30:16;16.30;76.30
32296;DHT22;18781;51.550;5.418;2023-05-10T05:32:42;16.30;76.30
32296;DHT22;18781;51.550;5.418;2023-05-10T05:35:08;16.30;76.40
32296;DHT22;18781;51.550;5.418;2023-05-10T05:37:33;16.30;76.30
32296;DHT22;18781;51.550;5.418;2023-05-10T05:39:59;16.30;76.30
32296;DHT22;18781;51.550;5.418;2023-05-10T05:42:26;16.30;76.30
32296;DHT22;18781;51.550;5.418;2023-05-10T05:44:52;16.30;76.30
32296;DHT22;18781;51.550;5.418;2023-05-10T05:47:17;16.30;76.30
32296;DHT22;18781;51.550;5.418;2023-05-10T05:49:43;16.30;76.40
32296;DHT22;18781;51.550;5.418;2023-05-10T05:52:11;16.30;76.40
32296;DHT22;18781;51.550;5.418;2023-05-10T05:54:36;16.40;76.50
32296;DHT22;18781;51.550;5.418;2023-05-10T05:57:02;16.40;76.50
32296;DHT22;18781;51.550;5.418;2023-05-10T05:59:28;16.40;76.60
32296;DHT22;18781;51.550;5.418;2023-05-10T06:01:53;16.40;76.70
32296;DHT22;18781;51.550;5.418;2023-05-10T06:04:19;16.50;76.70
32296;DHT22;18781;51.550;5.418;2023-05-10T06:06:45;16.50;76.70
32296;DHT22;18781;51.550;5.418;2023-05-10T06:09:11;16.50;76.70
32296;DHT22;18781;51.550;5.418;2023-05-10T06:11:37;16.50;76.70
32296;DHT22;18781;51.550;5.418;2023-05-10T06:14:03;16.50;76.80
32296;DHT22;18781;51.550;5.418;2023-05-10T06:16:30;16.50;76.80
32296;DHT22;18781;51.550;5.418;2023-05-10T06:18:56;16.60;76.80
32296;DHT22;18781;51.550;5.418;2023-05-10T06:21:21;16.60;76.70
32296;DHT22;18781;51.550;5.418;2023-05-10T06:23:47;16.60;76.60
32296;DHT22;18781;51.550;5.418;2023-05-10T06:26:13;16.60;76.60
32296;DHT22;18781;51.550;5.418;2023-05-10T06:28:39;16.60;76.70
32296;DHT22;18781;51.550;5.418;2023-05-10T06:31:06;16.60;76.60
32296;DHT22;18781;51.550;5.418;2023-05-10T06:33:32;16.60;76.50
32296;DHT22;18781;51.550;5.418;2023-05-10T06:35:57;16.60;76.60
32296;DHT22;18781;51.550;5.418;2023-05-10T06:38:23;16.70;76.50
32296;DHT22;18781;51.550;5.418;2023-05-10T06:40:49;16.70;76.50
32296;DHT22;18781;51.550;5.418;2023-05-10T06:43:14;16.70;76.50
32296;DHT22;18781;51.550;5.418;2023-05-10T06:45:40;16.70;76.50
32296;DHT22;18781;51.550;5.418;2023-05-10T06:48:06;16.70;76.50
32296;DHT22;18781;51.550;5.418;2023-05-10T06:50:32;16.70;76.50
32296;DHT22;18781;51.550;5.418;2023-05-10T06:52:58;16.70;76.50
32296;DHT22;18781;51.550;5.418;2023-05-10T06:55:24;16.70;76.50
32296;DHT22;18781;51.550;5.418;2023-05-10T06:57:50;16.80;77.00
32296;DHT22;18781;51.550;5.418;2023-05-10T07:00:16;16.80;76.50
32296;DHT22;18781;51.550;5.418;2023-05-10T07:02:42;16.80;76.40
32296;DHT22;18781;51.550;5.418;2023-05-10T07:05:08;16.80;76.40
32296;DHT22;18781;51.550;5.418;2023-05-10T07:07:33;16.80;76.40
32296;DHT22;18781;51.550;5.418;2023-05-10T07:09:59;16.90;76.50
32296;DHT22;18781;51.550;5.418;2023-05-10T07:12:25;16.90;76.50
32296;DHT22;18781;51.550;5.418;2023-05-10T07:14:51;16.90;76.40
32296;DHT22;18781;51.550;5.418;2023-05-10T07:17:17;16.90;76.30
32296;DHT22;18781;51.550;5.418;2023-05-10T07:19:43;16.90;76.20
32296;DHT22;18781;51.550;5.418;2023-05-10T07:22:08;16.90;76.20
32296;DHT22;18781;51.550;5.418;2023-05-10T07:24:34;17.00;76.20
32296;DHT22;18781;51.550;5.418;2023-05-10T07:27:00;17.00;76.20
32296;DHT22;18781;51.550;5.418;2023-05-10T07:29:25;17.00;76.20
32296;DHT22;18781;51.550;5.418;2023-05-10T07:31:51;17.00;76.00
32296;DHT22;18781;51.550;5.418;2023-05-10T07:34:16;17.00;76.10
32296;DHT22;18781;51.550;5.418;2023-05-10T07:36:42;17.00;76.10
32296;DHT22;18781;51.550;5.418;2023-05-10T07:39:08;17.00;76.00
32296;DHT22;18781;51.550;5.418;2023-05-10T07:41:33;17.00;75.80
32296;DHT22;18781;51.550;5.418;2023-05-10T07:43:59;17.00;75.80
32296;DHT22;18781;51.550;5.418;2023-05-10T07:46:24;17.10;75.90
32296;DHT22;18781;51.550;5.418;2023-05-10T07:48:50;17.10;75.70
32296;DHT22;18781;51.550;5.418;2023-05-10T07:51:15;17.10;75.50
32296;DHT22;18781;51.550;5.418;2023-05-10T07:53:41;17.00;75.50
32296;DHT22;18781;51.550;5.418;2023-05-10T07:56:30;17.10;75.50
32296;DHT22;18781;51.550;5.418;2023-05-10T07:58:57;17.10;75.60
32296;DHT22;18781;51.550;5.418;2023-05-10T08:01:23;17.00;75.60
32296;DHT22;18781;51.550;5.418;2023-05-10T08:03:49;17.10;75.60
32296;DHT22;18781;51.550;5.418;2023-05-10T08:06:17;17.10;75.40
32296;DHT22;18781;51.550;5.418;2023-05-10T08:08:43;17.10;75.40
32296;DHT22;18781;51.550;5.418;2023-05-10T08:11:11;17.10;75.30
32296;DHT22;18781;51.550;5.418;2023-05-10T08:13:36;17.10;75.30
32296;DHT22;18781;51.550;5.418;2023-05-10T08:16:02;17.10;75.40
32296;DHT22;18781;51.550;5.418;2023-05-10T08:18:27;17.10;75.50
32296;DHT22;18781;51.550;5.418;2023-05-10T08:20:54;17.10;75.50
32296;DHT22;18781;51.550;5.418;2023-05-10T08:23:19;17.10;75.40
32296;DHT22;18781;51.550;5.418;2023-05-10T08:25:45;17.20;75.50
32296;DHT22;18781;51.550;5.418;2023-05-10T08:28:10;17.20;75.70
32296;DHT22;18781;51.550;5.418;2023-05-10T08:30:36;17.20;75.50
32296;DHT22;18781;51.550;5.418;2023-05-10T08:33:02;17.20;75.50
32296;DHT22;18781;51.550;5.418;2023-05-10T08:35:27;17.20;75.50
32296;DHT22;18781;51.550;5.418;2023-05-10T08:37:53;17.30;75.30
32296;DHT22;18781;51.550;5.418;2023-05-10T08:40:19;17.30;75.10
32296;DHT22;18781;51.550;5.418;2023-05-10T08:42:55;17.30;74.80
32296;DHT22;18781;51.550;5.418;2023-05-10T08:45:23;17.30;74.80
32296;DHT22;18781;51.550;5.418;2023-05-10T08:47:49;17.30;74.80
32296;DHT22;18781;51.550;5.418;2023-05-10T08:50:17;17.40;75.00
32296;DHT22;18781;51.550;5.418;2023-05-10T08:52:44;17.40;75.10
32296;DHT22;18781;51.550;5.418;2023-05-10T08:55:11;17.50;75.20
32296;DHT22;18781;51.550;5.418;2023-05-10T08:57:36;17.50;75.00
32296;DHT22;18781;51.550;5.418;2023-05-10T09:00:02;17.50;74.90
32296;DHT22;18781;51.550;5.418;2023-05-10T09:02:28;17.50;74.80
32296;DHT22;18781;51.550;5.418;2023-05-10T09:04:54;17.60;74.70
32296;DHT22;18781;51.550;5.418;2023-05-10T09:07:20;17.60;74.80
32296;DHT22;18781;51.550;5.418;2023-05-10T09:09:45;17.60;74.90
32296;DHT22;18781;51.550;5.418;2023-05-10T09:12:12;17.60;74.70
32296;DHT22;18781;51.550;5.418;2023-05-10T09:14:38;17.70;74.80
32296;DHT22;18781;51.550;5.418;2023-05-10T09:17:04;17.70;74.50
32296;DHT22;18781;51.550;5.418;2023-05-10T09:19:30;17.70;74.50
32296;DHT22;18781;51.550;5.418;2023-05-10T09:21:55;17.80;74.60
32296;DHT22;18781;51.550;5.418;2023-05-10T09:24:25;17.80;74.60
32296;DHT22;18781;51.550;5.418;2023-05-10T09:26:52;17.90;74.40
32296;DHT22;18781;51.550;5.418;2023-05-10T09:29:18;17.90;74.40
32296;DHT22;18781;51.550;5.418;2023-05-10T09:31:52;18.00;74.20
32296;DHT22;18781;51.550;5.418;2023-05-10T09:34:30;18.10;74.10
32296;DHT22;18781;51.550;5.418;2023-05-10T09:36:57;18.10;73.90
32296;DHT22;18781;51.550;5.418;2023-05-10T09:39:34;18.20;74.20
32296;DHT22;18781;51.550;5.418;2023-05-10T09:42:05;18.30;73.30
32296;DHT22;18781;51.550;5.418;2023-05-10T09:44:32;18.30;73.40
32296;DHT22;18781;51.550;5.418;2023-05-10T09:46:58;18.40;73.50
32296;DHT22;18781;51.550;5.418;2023-05-10T09:49:24;18.40;73.60
32296;DHT22;18781;51.550;5.418;2023-05-10T09:52:02;18.50;73.40
32296;DHT22;18781;51.550;5.418;2023-05-10T09:54:28;18.50;72.70
32296;DHT22;18781;51.550;5.418;2023-05-10T09:56:54;18.50;72.60
32296;DHT22;18781;51.550;5.418;2023-05-10T09:59:20;18.50;72.60
32296;DHT22;18781;51.550;5.418;2023-05-10T10:01:52;18.60;71.90
32296;DHT22;18781;51.550;5.418;2023-05-10T10:04:20;18.60;71.50
32296;DHT22;18781;51.550;5.418;2023-05-10T10:06:46;18.60;71.60
32296;DHT22;18781;51.550;5.418;2023-05-10T10:09:12;18.60;72.10
32296;DHT22;18781;51.550;5.418;2023-05-10T10:11:39;18.60;72.20
32296;DHT22;18781;51.550;5.418;2023-05-10T10:14:05;18.60;72.40
32296;DHT22;18781;51.550;5.418;2023-05-10T10:16:31;18.70;72.50
32296;DHT22;18781;51.550;5.418;2023-05-10T10:18:57;18.70;72.60
32296;DHT22;18781;51.550;5.418;2023-05-10T10:21:23;18.70;72.50
32296;DHT22;18781;51.550;5.418;2023-05-10T10:23:49;18.80;72.20
32296;DHT22;18781;51.550;5.418;2023-05-10T10:26:17;18.80;72.10
32296;DHT22;18781;51.550;5.418;2023-05-10T10:34:25;18.90;71.60
32296;DHT22;18781;51.550;5.418;2023-05-10T10:36:52;19.00;71.20
32296;DHT22;18781;51.550;5.418;2023-05-10T10:39:20;19.00;70.90
32296;DHT22;18781;51.550;5.418;2023-05-10T10:41:53;19.00;70.80
32296;DHT22;18781;51.550;5.418;2023-05-10T10:49:26;19.10;71.50
32296;DHT22;18781;51.550;5.418;2023-05-10T10:55:06;19.10;70.40
32296;DHT22;18781;51.550;5.418;2023-05-10T10:57:43;19.20;70.90
32296;DHT22;18781;51.550;5.418;2023-05-10T11:02:53;19.30;71.20
32296;DHT22;18781;51.550;5.418;2023-05-10T11:05:39;19.40;70.70
32296;DHT22;18781;51.550;5.418;2023-05-10T11:16:21;19.70;69.00
32296;DHT22;18781;51.550;5.418;2023-05-10T11:21:22;19.70;68.40
32296;DHT22;18781;51.550;5.418;2023-05-10T11:23:53;19.70;69.20
32296;DHT22;18781;51.550;5.418;2023-05-10T11:26:25;19.70;68.60
32296;DHT22;18781;51.550;5.418;2023-05-10T11:28:52;19.70;68.90
32296;DHT22;18781;51.550;5.418;2023-05-10T11:31:20;19.70;68.70
32296;DHT22;18781;51.550;5.418;2023-05-10T11:33:50;19.70;68.70
32296;DHT22;18781;51.550;5.418;2023-05-10T11:36:35;19.70;68.50
32296;DHT22;18781;51.550;5.418;2023-05-10T11:39:01;19.70;68.40
32296;DHT22;18781;51.550;5.418;2023-05-10T11:41:29;19.80;68.90
32296;DHT22;18781;51.550;5.418;2023-05-10T11:43:56;19.80;68.30
32296;DHT22;18781;51.550;5.418;2023-05-10T11:46:26;19.80;67.90
32296;DHT22;18781;51.550;5.418;2023-05-10T11:48:58;19.80;67.60
32296;DHT22;18781;51.550;5.418;2023-05-10T11:51:25;19.80;67.70
32296;DHT22;18781;51.550;5.418;2023-05-10T11:53:53;19.80;68.00
32296;DHT22;18781;51.550;5.418;2023-05-10T11:56:19;19.80;67.80
32296;DHT22;18781;51.550;5.418;2023-05-10T11:58:54;19.90;67.90
32296;DHT22;18781;51.550;5.418;2023-05-10T12:01:21;19.90;67.90
32296;DHT22;18781;51.550;5.418;2023-05-10T12:03:48;19.90;67.60
32296;DHT22;18781;51.550;5.418;2023-05-10T12:06:14;19.90;67.40
32296;DHT22;18781;51.550;5.418;2023-05-10T12:08:45;19.90;67.20
32296;DHT22;18781;51.550;5.418;2023-05-10T12:11:12;19.90;66.70
32296;DHT22;18781;51.550;5.418;2023-05-10T12:13:44;19.90;66.50
32296;DHT22;18781;51.550;5.418;2023-05-10T12:16:15;19.80;66.40
32296;DHT22;18781;51.550;5.418;2023-05-10T12:18:41;19.70;66.40
32296;DHT22;18781;51.550;5.418;2023-05-10T12:21:12;19.70;66.80
32296;DHT22;18781;51.550;5.418;2023-05-10T12:23:41;19.60;67.00
32296;DHT22;18781;51.550;5.418;2023-05-10T12:26:09;19.40;67.00
32296;DHT22;18781;51.550;5.418;2023-05-10T12:28:36;19.40;67.40
32296;DHT22;18781;51.550;5.418;2023-05-10T12:31:02;19.30;67.70
32296;DHT22;18781;51.550;5.418;2023-05-10T12:33:42;19.20;68.10
32296;DHT22;18781;51.550;5.418;2023-05-10T12:36:09;19.10;68.60
32296;DHT22;18781;51.550;5.418;2023-05-10T12:38:40;19.10;68.90
32296;DHT22;18781;51.550;5.418;2023-05-10T12:41:12;19.00;69.10
32296;DHT22;18781;51.550;5.418;2023-05-10T12:43:39;19.00;69.20
32296;DHT22;18781;51.550;5.418;2023-05-10T12:46:11;18.90;69.30
32296;DHT22;18781;51.550;5.418;2023-05-10T12:51:22;18.90;69.70
32296;DHT22;18781;51.550;5.418;2023-05-10T12:53:48;18.90;70.00
32296;DHT22;18781;51.550;5.418;2023-05-10T12:56:13;18.90;70.00
32296;DHT22;18781;51.550;5.418;2023-05-10T12:58:39;18.90;70.00
32296;DHT22;18781;51.550;5.418;2023-05-10T13:01:05;18.90;70.10
32296;DHT22;18781;51.550;5.418;2023-05-10T13:03:30;18.90;70.10
32296;DHT22;18781;51.550;5.418;2023-05-10T13:05:56;18.90;70.40
32296;DHT22;18781;51.550;5.418;2023-05-10T13:08:21;18.80;70.50
32296;DHT22;18781;51.550;5.418;2023-05-10T13:10:47;18.80;70.50
32296;DHT22;18781;51.550;5.418;2023-05-10T13:13:13;18.90;70.70
32296;DHT22;18781;51.550;5.418;2023-05-10T13:15:38;18.90;70.60
32296;DHT22;18781;51.550;5.418;2023-05-10T13:18:04;18.90;70.60
32296;DHT22;18781;51.550;5.418;2023-05-10T13:20:29;18.80;70.10
32296;DHT22;18781;51.550;5.418;2023-05-10T13:22:55;18.80;69.90
32296;DHT22;18781;51.550;5.418;2023-05-10T13:25:21;18.80;70.30
32296;DHT22;18781;51.550;5.418;2023-05-10T13:27:46;18.80;70.60
32296;DHT22;18781;51.550;5.418;2023-05-10T13:30:12;18.90;70.80
32296;DHT22;18781;51.550;5.418;2023-05-10T13:32:37;18.90;71.00
32296;DHT22;18781;51.550;5.418;2023-05-10T13:35:05;18.90;71.30
32296;DHT22;18781;51.550;5.418;2023-05-10T13:37:31;19.00;71.50
32296;DHT22;18781;51.550;5.418;2023-05-10T13:39:57;19.00;71.50
32296;DHT22;18781;51.550;5.418;2023-05-10T13:42:23;19.00;71.50
32296;DHT22;18781;51.550;5.418;2023-05-10T13:44:49;19.10;71.50
32296;DHT22;18781;51.550;5.418;2023-05-10T13:47:15;19.10;71.30
32296;DHT22;18781;51.550;5.418;2023-05-10T13:49:41;19.10;71.20
32296;DHT22;18781;51.550;5.418;2023-05-10T13:52:06;19.10;71.30
32296;DHT22;18781;51.550;5.418;2023-05-10T13:54:35;19.10;71.10
32296;DHT22;18781;51.550;5.418;2023-05-10T13:57:01;19.20;71.00
32296;DHT22;18781;51.550;5.418;2023-05-10T13:59:27;19.10;70.90
32296;DHT22;18781;51.550;5.418;2023-05-10T14:01:52;19.20;70.90
32296;DHT22;18781;51.550;5.418;2023-05-10T14:04:18;19.10;70.70
32296;DHT22;18781;51.550;5.418;2023-05-10T14:06:43;19.10;70.20
32296;DHT22;18781;51.550;5.418;2023-05-10T14:09:09;19.10;69.80
32296;DHT22;18781;51.550;5.418;2023-05-10T14:11:35;19.00;70.00
32296;DHT22;18781;51.550;5.418;2023-05-10T14:14:00;18.90;70.20
32296;DHT22;18781;51.550;5.418;2023-05-10T14:16:26;18.90;69.90
32296;DHT22;18781;51.550;5.418;2023-05-10T14:18:52;18.80;70.00
32296;DHT22;18781;51.550;5.418;2023-05-10T14:21:18;18.80;70.10
32296;DHT22;18781;51.550;5.418;2023-05-10T14:23:47;18.70;70.30
32296;DHT22;18781;51.550;5.418;2023-05-10T14:26:12;18.70;70.70
32296;DHT22;18781;51.550;5.418;2023-05-10T14:28:38;18.60;70.90
32296;DHT22;18781;51.550;5.418;2023-05-10T14:31:03;18.60;71.00
32296;DHT22;18781;51.550;5.418;2023-05-10T14:33:30;18.60;71.10
32296;DHT22;18781;51.550;5.418;2023-05-10T14:35:56;18.60;71.00
32296;DHT22;18781;51.550;5.418;2023-05-10T14:38:22;18.60;70.90
32296;DHT22;18781;51.550;5.418;2023-05-10T14:40:48;18.50;70.70
32296;DHT22;18781;51.550;5.418;2023-05-10T14:43:14;18.50;70.90
32296;DHT22;18781;51.550;5.418;2023-05-10T14:45:40;18.50;71.00
32296;DHT22;18781;51.550;5.418;2023-05-10T14:48:06;18.50;71.10
32296;DHT22;18781;51.550;5.418;2023-05-10T14:50:36;18.50;71.30
32296;DHT22;18781;51.550;5.418;2023-05-10T14:53:02;18.50;71.40
32296;DHT22;18781;51.550;5.418;2023-05-10T14:55:27;18.50;71.40
32296;DHT22;18781;51.550;5.418;2023-05-10T14:57:53;18.50;71.50
32296;DHT22;18781;51.550;5.418;2023-05-10T15:00:19;18.50;71.50
32296;DHT22;18781;51.550;5.418;2023-05-10T15:02:45;18.50;71.40
32296;DHT22;18781;51.550;5.418;2023-05-10T15:05:11;18.50;71.50
32296;DHT22;18781;51.550;5.418;2023-05-10T15:07:36;18.50;71.60
32296;DHT22;18781;51.550;5.418;2023-05-10T15:10:02;18.50;71.70
32296;DHT22;18781;51.550;5.418;2023-05-10T15:12:28;18.50;71.80
32296;DHT22;18781;51.550;5.418;2023-05-10T15:14:53;18.50;71.90
32296;DHT22;18781;51.550;5.418;2023-05-10T15:17:19;18.50;71.90
32296;DHT22;18781;51.550;5.418;2023-05-10T15:19:45;18.50;72.00
32296;DHT22;18781;51.550;5.418;2023-05-10T15:22:10;18.50;72.00
32296;DHT22;18781;51.550;5.418;2023-05-10T15:24:36;18.50;72.00
32296;DHT22;18781;51.550;5.418;2023-05-10T15:27:02;18.50;72.10
32296;DHT22;18781;51.550;5.418;2023-05-10T15:29:28;18.50;72.10
32296;DHT22;18781;51.550;5.418;2023-05-10T15:31:54;18.50;72.20
32296;DHT22;18781;51.550;5.418;2023-05-10T15:34:20;18.50;72.10
32296;DHT22;18781;51.550;5.418;2023-05-10T15:36:46;18.50;71.90
32296;DHT22;18781;51.550;5.418;2023-05-10T15:39:11;18.50;71.90
32296;DHT22;18781;51.550;5.418;2023-05-10T15:41:37;18.50;71.70
32296;DHT22;18781;51.550;5.418;2023-05-10T15:44:03;18.50;71.50
32296;DHT22;18781;51.550;5.418;2023-05-10T15:46:29;18.40;72.20
32296;DHT22;18781;51.550;5.418;2023-05-10T15:48:55;18.40;71.70
32296;DHT22;18781;51.550;5.418;2023-05-10T15:51:21;18.40;71.90
32296;DHT22;18781;51.550;5.418;2023-05-10T15:53:47;18.40;72.00
32296;DHT22;18781;51.550;5.418;2023-05-10T15:56:12;18.40;72.10
32296;DHT22;18781;51.550;5.418;2023-05-10T15:58:39;18.30;72.10
32296;DHT22;18781;51.550;5.418;2023-05-10T16:01:05;18.30;72.00
32296;DHT22;18781;51.550;5.418;2023-05-10T16:03:31;18.30;72.00
32296;DHT22;18781;51.550;5.418;2023-05-10T16:05:57;18.30;72.20
32296;DHT22;18781;51.550;5.418;2023-05-10T16:08:23;18.30;72.20
32296;DHT22;18781;51.550;5.418;2023-05-10T16:10:50;18.40;72.40
32296;DHT22;18781;51.550;5.418;2023-05-10T16:13:16;18.30;72.40